• Join FlightAware (Why Join?)
  • Login
  • US Flag 
12:58AM EST


 

Airport Tracker/Info


-or-


 

Live Flight TrackerFlight Track Log ✈ N193MB ✈ 09-Apr-2014 ✈ KCPC - 3N6

Flight Track Log - Related Links

Times and Time Zones

All times are in EDT time to prevent confusion due to time zone crossing. See the N193MB flight status page for this flight to view local times or setup timezone preferences in your user account.

Time Position Orientation Groundspeed Altitude Reporting Facility
EDT Latitude Longitude Course Direction KTS MPH feet Rate Location/Type
01:37PM 34.4296 -78.5100 44° Northeast  Level FlightAware Approximate
01:38PM 34.4569 -78.4781 44° Northeast  Level FlightAware Approximate
01:39PM 34.4834 -78.4452 47° Northeast  Level FlightAware Approximate
01:40PM 34.5094 -78.4118 47° Northeast  Level FlightAware Approximate
01:41PM 34.5355 -78.3783 47° Northeast  Level FlightAware Approximate
01:42PM 34.5615 -78.3448 47° Northeast  Level FlightAware Approximate
01:43PM 34.5876 -78.3113 47° Northeast  Level FlightAware Approximate
01:44PM 34.6136 -78.2778 47° Northeast  Level FlightAware Approximate
01:45PM 34.6396 -78.2443 47° Northeast  Level FlightAware Approximate
01:46PM 34.6656 -78.2107 47° Northeast  Level FlightAware Approximate
01:47PM 34.6916 -78.1771 47° Northeast  Level FlightAware Approximate
01:48PM 34.7175 -78.1435 47° Northeast  Level FlightAware Approximate
01:49PM 34.7435 -78.1099 47° Northeast  Level FlightAware Approximate
01:50PM 34.7695 -78.0763 47° Northeast  Level FlightAware Approximate
01:51PM 34.7954 -78.0426 47° Northeast  Level FlightAware Approximate
01:52PM 34.8214 -78.0089 47° Northeast  Level FlightAware Approximate
01:52PM 34.8567 -78.0117 34° Northeast 110 127 5,000  Level Washington Center
01:53PM 34.8473 -77.9752 47° Northeast  Level FlightAware Approximate
01:53PM 34.8803 -77.9872 40° Northeast 112 129 5,000  Level Washington Center
01:56PM 34.9694 -77.8986 34° Northeast 128 147 5,000  Level Washington Center
02:02PM 35.1347 -77.7686 36° Northeast 134 154 5,000  Level Washington Center
02:03PM 35.1878 -77.7167 39° Northeast 130 150 5,000  Level Washington Center
02:05PM 35.2239 -77.6872 34° Northeast 127 146 5,000  Level Washington Center
02:06PM 35.2199 -77.6793 36° Northeast  Level FlightAware Approximate
02:06PM 35.2533 -77.6700 26° Northeast 133 153 5,000  Level Washington Center
02:07PM 35.2472 -77.6553 36° Northeast  Level FlightAware Approximate
02:07PM 35.2892 -77.6456 29° Northeast 131 151 5,000  Level Washington Center
02:08PM 35.3442 -77.6061 30° Northeast 152 175 5,100  Climbing Washington Center
02:10PM 35.4056 -77.5542 64° Northeast 129 148 5,100  Level Washington Center
02:11PM 35.4372 -77.5319 30° Northeast 129 148 5,100  Level Washington Center
02:14PM 35.5319 -77.4706 40° Northeast 124 143 5,100  Level Washington Center
02:15PM 35.5636 -77.4508 27° Northeast 124 143 5,100  Level Washington Center
02:17PM 35.6311 -77.4117 27° Northeast 119 137 5,100  Level Washington Center
02:18PM 35.6628 -77.3892 30° Northeast 119 137 5,100  Level Washington Center
02:20PM 35.7239 -77.3394 66° East 124 143 5,100  Level Washington Center
02:22PM 35.7811 -77.2894 45° Northeast 124 143 5,100  Level Washington Center
02:23PM 35.8106 -77.2619 37° Northeast 124 143 5,100  Level Washington Center
02:24PM 35.8381 -77.2317 42° Northeast 124 143 5,100  Level Washington Center
02:25PM 35.8678 -77.2069 34° Northeast 129 148 5,100 -60 Level Washington Center
02:27PM 35.9350 -77.1644 34° Northeast 134 154 5,000 -60 Descending Washington Center
02:29PM 35.9981 -77.1197 30° Northeast 129 148 5,000  Level Washington Center
02:33PM 36.1225 -77.0319 27° Northeast 123 142 5,000  Level Washington Center
02:34PM 36.1519 -77.0069 34° Northeast 128 147 5,000  Level Washington Center
02:35PM 36.1897 -76.9894 20° North 123 142 5,000  Level Washington Center
02:36PM 36.2192 -76.9642 29° Northeast 128 147 5,000  Level Washington Center
02:37PM 36.2242 -76.9656 29° Northeast  Level FlightAware Approximate
02:38PM 36.2800 -76.9214 30° Northeast 123 142 5,000  Level Washington Center
02:39PM 36.2815 -76.9215 27° Northeast  Level FlightAware Approximate
02:39PM 36.3033 -76.9089 23° Northeast 132 152 5,000  Level Washington Center
02:39PM 36.3097 -76.8961 58° Northeast 123 142 5,000  Level Washington Center
02:40PM 36.3347 -76.8836 22° Northeast 124 143 5,000  Level Washington Center
02:41PM 36.3683 -76.8661 23° Northeast 124 143 5,000  Level Washington Center
02:41PM 36.3725 -76.8561 63° Northeast 118 136 5,000  Level Washington Center
02:42PM 36.4019 -76.8358 29° Northeast 136 157 5,000  Level Washington Center
02:43PM 36.4253 -76.8078 44° Northeast 139 160 5,000  Level Washington Center
02:44PM 36.4550 -76.7617 51° Northeast 128 147 5,000  Level Washington Center
02:46PM 36.5139 -76.7161 51° Northeast 135 155 5,000  Level Washington Center
02:47PM 36.5494 -76.7036 16° North 121 139 5,000  Level Washington Center
02:48PM 36.5786 -76.6911 19° North 131 151 5,000  Level Washington Center
02:49PM 36.6186 -76.6711 22° Northeast 135 155 5,000  Level Washington Center
02:50PM 36.6481 -76.6481 32° Northeast 131 151 5,000  Level Washington Center
02:51PM 36.6794 -76.6228 33° Northeast 132 152 5,000  Level Washington Center
02:53PM 36.7131 -76.5947 34° Northeast 133 153 5,000  Level Washington Center
02:54PM 36.7467 -76.5717 29° Northeast 129 148 5,000  Level Washington Center
02:55PM 36.8053 -76.5336 27° Northeast 127 146 5,000  Level Washington Center
02:56PM 36.8408 -76.5183 19° North 129 148 5,000  Level Washington Center
03:00PM 36.9375 -76.4364 37° Northeast 133 153 5,000  Level Washington Center
03:06PM 37.1386 -76.2978 28° Northeast 130 150 5,000  Level Washington Center
03:07PM 37.1700 -76.2775 27° Northeast 131 151 5,000  Level Washington Center
03:09PM 37.2096 -76.2329 28° Northeast  Level FlightAware Approximate
03:09PM 37.2350 -76.2336 28° Northeast 133 153 5,000  Level Washington Center
03:10PM 37.2414 -76.2117 28° Northeast  Level FlightAware Approximate
03:10PM 37.2644 -76.2050 38° Northeast 129 148 5,000  Level Washington Center
03:11PM 37.2731 -76.1905 28° Northeast  Level FlightAware Approximate
03:11PM 37.2978 -76.1792 32° Northeast 129 148 5,000  Level Washington Center
03:12PM 37.3049 -76.1692 28° Northeast  Level FlightAware Approximate
03:12PM 37.3439 -76.1456 30° Northeast 128 147 5,000  Level Washington Center
03:14PM 37.3858 -76.1197 26° Northeast 129 148 5,000  Level Washington Center
03:15PM 37.4150 -76.0964 32° Northeast 129 148 5,000  Level Washington Center
03:16PM 37.4464 -76.0758 27° Northeast 127 146 5,100  Climbing Washington Center
03:18PM 37.5111 -76.0317 28° Northeast 131 151 5,100  Level Washington Center
03:21PM 37.6011 -75.9614 29° Northeast 130 150 5,100  Level Washington Center
03:22PM 37.6325 -75.9406 28° Northeast 127 146 5,100  Level Washington Center
03:23PM 37.6639 -75.9225 24° Northeast 121 139 5,100  Level Washington Center
03:23PM 37.6847 -75.9092 27° Northeast 121 139 5,100  Level Washington Center
03:25PM 37.7244 -75.8936 17° North 117 135 5,100  Level Washington Center
03:26PM 37.7536 -75.8808 19° North 119 137 5,100  Level Washington Center
03:28PM 37.8183 -75.8361 29° Northeast 127 146 5,100  Level Washington Center
03:29PM 37.8517 -75.8181 23° Northeast 127 146 5,100  Level Washington Center
03:30PM 37.8811 -75.7997 26° Northeast 126 145 5,100  Level Washington Center
03:31PM 37.9122 -75.7839 22° Northeast 125 144 5,100  Level Washington Center
03:33PM 37.9769 -75.7392 29° Northeast 127 146 5,100  Level Washington Center
03:34PM 38.0061 -75.7208 26° Northeast 122 140 5,100  Level Washington Center
03:36PM 38.0731 -75.6842 23° Northeast 127 146 5,100  Level Washington Center
03:40PM 38.2064 -75.6050 27° Northeast 122 140 5,100  Level Washington Center
03:41PM 38.2439 -75.5839 24° Northeast 133 153 5,100  Level Washington Center
03:42PM 38.2711 -75.5628 31° Northeast 125 144 5,100  Level Washington Center
03:43PM 38.3003 -75.5442 27° Northeast 119 137 5,100  Level Washington Center
03:44PM 38.3336 -75.5281 21° North 126 145 5,100  Level Washington Center
03:45PM 38.3491 -75.4899 27° Northeast  Level FlightAware Approximate
03:45PM 38.3650 -75.5097 25° Northeast 134 154 5,100  Level Washington Center
03:46PM 38.3812 -75.4693 27° Northeast  Level FlightAware Approximate
03:47PM 38.4109 -75.4735 32° Northeast  Level FlightAware Approximate
03:54PM 38.6064 -75.3245 27° Northeast  Level FlightAware Approximate
03:55PM 38.6386 -75.3039 27° Northeast  Level FlightAware Approximate
03:56PM 38.6707 -75.2832 27° Northeast  Level FlightAware Approximate
03:57PM 38.7029 -75.2626 27° Northeast  Level FlightAware Approximate
03:58PM 38.7350 -75.2419 27° Northeast  Level FlightAware Approximate
03:59PM 38.7671 -75.2212 27° Northeast  Level FlightAware Approximate
04:00PM 38.7993 -75.2005 27° Northeast  Level FlightAware Approximate
04:01PM 38.8324 -75.1826 23° Northeast  Level FlightAware Approximate
04:02PM 38.8656 -75.1648 23° Northeast  Level FlightAware Approximate
04:03PM 38.8988 -75.1469 23° Northeast  Level FlightAware Approximate
04:04PM 38.9319 -75.1291 23° Northeast  Level FlightAware Approximate
04:05PM 38.9651 -75.1112 23° Northeast  Level FlightAware Approximate
04:06PM 38.9983 -75.0933 23° Northeast  Level FlightAware Approximate
04:07PM 39.0293 -75.0707 38° Northeast  Level FlightAware Approximate
04:08PM 39.0618 -75.0514 23° Northeast  Level FlightAware Approximate
04:09PM 39.0950 -75.0335 23° Northeast  Level FlightAware Approximate
04:10PM 39.1282 -75.0157 23° Northeast  Level FlightAware Approximate
04:11PM 39.1614 -74.9978 23° Northeast  Level FlightAware Approximate
04:12PM 39.1946 -74.9799 23° Northeast  Level FlightAware Approximate
04:13PM 39.2277 -74.9620 23° Northeast  Level FlightAware Approximate
04:14PM 39.2596 -74.9411 36° Northeast  Level FlightAware Approximate
04:15PM 39.2888 -74.9139 36° Northeast  Level FlightAware Approximate
04:16PM 39.3180 -74.8867 36° Northeast  Level FlightAware Approximate
04:17PM 39.3472 -74.8596 36° Northeast  Level FlightAware Approximate
04:18PM 39.3763 -74.8324 36° Northeast  Level FlightAware Approximate
04:19PM 39.4055 -74.8051 36° Northeast  Level FlightAware Approximate
04:20PM 39.4347 -74.7779 36° Northeast  Level FlightAware Approximate
04:21PM 39.4638 -74.7506 36° Northeast  Level FlightAware Approximate
04:22PM 39.4929 -74.7233 36° Northeast  Level FlightAware Approximate
04:23PM 39.5216 -74.6951 38° Northeast  Level FlightAware Approximate
04:24PM 39.5501 -74.6666 38° Northeast  Level FlightAware Approximate
04:25PM 39.5785 -74.6381 38° Northeast  Level FlightAware Approximate
04:26PM 39.6070 -74.6096 38° Northeast  Level FlightAware Approximate
04:27PM 39.6355 -74.5812 38° Northeast  Level FlightAware Approximate
04:28PM 39.6640 -74.5527 38° Northeast  Level FlightAware Approximate
04:29PM 39.6936 -74.5261 34° Northeast  Level FlightAware Approximate
04:30PM 39.7233 -74.4997 34° Northeast  Level FlightAware Approximate
04:31PM 39.7530 -74.4734 34° Northeast  Level FlightAware Approximate
04:32PM 39.7827 -74.4469 34° Northeast  Level FlightAware Approximate
04:33PM 39.8124 -74.4205 34° Northeast  Level FlightAware Approximate
04:34PM 39.8419 -74.3938 35° Northeast  Level FlightAware Approximate
04:35PM 39.8714 -74.3670 35° Northeast  Level FlightAware Approximate
04:36PM 39.9009 -74.3402 35° Northeast  Level FlightAware Approximate
04:37PM 39.9304 -74.3134 35° Northeast  Level FlightAware Approximate
04:38PM 39.9599 -74.2866 35° Northeast  Level FlightAware Approximate
04:39PM 39.9894 -74.2597 35° Northeast  Level FlightAware Approximate
04:40PM 40.0170 -74.2297 43° Northeast  Level FlightAware Approximate
04:41PM 40.0434 -74.1979 43° Northeast  Level FlightAware Approximate
04:42PM 40.0699 -74.1661 43° Northeast  Level FlightAware Approximate
04:43PM 40.0974 -74.1641 323° Northwest  Level FlightAware Approximate
04:44PM 40.1260 -74.1927 323° Northwest  Level FlightAware Approximate
04:45PM 40.1572 -74.2159 333° Northwest  Level FlightAware Approximate
04:46PM 40.1886 -74.2386 323° Northwest  Level FlightAware Approximate
04:47PM 40.2173 -74.2667 North  Level FlightAware Approximate
04:48PM 40.2491 -74.2825 323° Northwest  Level FlightAware Approximate
04:49PM 40.2803 -74.3060 330° Northwest  Level FlightAware Approximate
04:50PM 40.3115 -74.3295 330° Northwest  Level FlightAware Approximate
04:51PM 40.3167 -74.3333 330° Northwest  Level FlightAware Approximate
04:52PM 40.3299 -74.3468 217° Southwest  Level Estimated
04:53PM 40.3299 -74.3468 142° Southeast  Level Estimated
04:54PM 40.3299 -74.3468 330° Northwest  Level Estimated